sensor_id;sensor_type;location;lat;lon;timestamp;pressure;altitude;pressure_sealevel;temperature;humidity
39177;BME280;24904;52.208;21.192;2023-08-30T00:02:07;99299.23;;;19.95;100.00
39177;BME280;24904;52.208;21.192;2023-08-30T00:07:10;99288.70;;;19.91;100.00
39177;BME280;24904;52.208;21.192;2023-08-30T00:12:13;99299.67;;;19.88;100.00
39177;BME280;24904;52.208;21.192;2023-08-30T00:17:16;99309.72;;;19.85;100.00
39177;BME280;24904;52.208;21.192;2023-08-30T00:22:20;99303.96;;;19.81;100.00
39177;BME280;24904;52.208;21.192;2023-08-30T00:27:24;99322.20;;;19.79;100.00
39177;BME280;24904;52.208;21.192;2023-08-30T00:32:27;99338.44;;;19.78;100.00
39177;BME280;24904;52.208;21.192;2023-08-30T00:37:30;99342.88;;;19.74;100.00
39177;BME280;24904;52.208;21.192;2023-08-30T00:42:32;99334.64;;;19.71;100.00
39177;BME280;24904;52.208;21.192;2023-08-30T00:47:36;99337.85;;;19.70;100.00
39177;BME280;24904;52.208;21.192;2023-08-30T00:52:39;99330.39;;;19.66;100.00
39177;BME280;24904;52.208;21.192;2023-08-30T00:57:42;99335.77;;;19.65;100.00
39177;BME280;24904;52.208;21.192;2023-08-30T01:02:45;99342.98;;;19.62;100.00
39177;BME280;24904;52.208;21.192;2023-08-30T01:07:48;99367.02;;;19.58;100.00
39177;BME280;24904;52.208;21.192;2023-08-30T01:12:56;99384.44;;;19.58;100.00
39177;BME280;24904;52.208;21.192;2023-08-30T01:18:03;99404.46;;;19.61;100.00
39177;BME280;24904;52.208;21.192;2023-08-30T01:23:11;99410.88;;;19.62;100.00
39177;BME280;24904;52.208;21.192;2023-08-30T01:28:21;99401.31;;;19.62;100.00
39177;BME280;24904;52.208;21.192;2023-08-30T01:33:27;99396.98;;;19.63;100.00
39177;BME280;24904;52.208;21.192;2023-08-30T01:44:28;99386.83;;;19.67;100.00
39177;BME280;24904;52.208;21.192;2023-08-30T01:49:33;99391.77;;;19.65;100.00
39177;BME280;24904;52.208;21.192;2023-08-30T01:54:41;99393.86;;;19.65;100.00
39177;BME280;24904;52.208;21.192;2023-08-30T01:59:46;99394.38;;;19.60;100.00
39177;BME280;24904;52.208;21.192;2023-08-30T02:04:49;99385.48;;;19.56;100.00
39177;BME280;24904;52.208;21.192;2023-08-30T02:09:58;99377.27;;;19.51;100.00
39177;BME280;24904;52.208;21.192;2023-08-30T02:15:04;99361.92;;;19.46;100.00
39177;BME280;24904;52.208;21.192;2023-08-30T02:20:10;99352.52;;;19.40;100.00
39177;BME280;24904;52.208;21.192;2023-08-30T02:25:13;99335.89;;;19.33;100.00
39177;BME280;24904;52.208;21.192;2023-08-30T02:30:16;99322.97;;;19.26;100.00
39177;BME280;24904;52.208;21.192;2023-08-30T02:35:20;99306.80;;;19.17;100.00
39177;BME280;24904;52.208;21.192;2023-08-30T02:40:23;99302.39;;;19.10;100.00
39177;BME280;24904;52.208;21.192;2023-08-30T02:45:26;99293.20;;;19.04;99.94
39177;BME280;24904;52.208;21.192;2023-08-30T02:50:29;99300.66;;;19.00;99.93
39177;BME280;24904;52.208;21.192;2023-08-30T02:55:32;99296.88;;;18.97;99.84
39177;BME280;24904;52.208;21.192;2023-08-30T03:00:35;99295.64;;;18.90;99.67
39177;BME280;24904;52.208;21.192;2023-08-30T03:05:39;99286.83;;;18.84;99.78
39177;BME280;24904;52.208;21.192;2023-08-30T03:10:42;99294.55;;;18.82;99.62
39177;BME280;24904;52.208;21.192;2023-08-30T03:15:46;99287.59;;;18.73;99.13
39177;BME280;24904;52.208;21.192;2023-08-30T03:20:49;99275.46;;;18.64;99.26
39177;BME280;24904;52.208;21.192;2023-08-30T03:26:08;99280.70;;;18.62;99.33
39177;BME280;24904;52.208;21.192;2023-08-30T03:31:16;99271.05;;;18.58;99.23
39177;BME280;24904;52.208;21.192;2023-08-30T03:36:20;99270.45;;;18.53;99.06
39177;BME280;24904;52.208;21.192;2023-08-30T03:41:23;99280.91;;;18.48;98.69
39177;BME280;24904;52.208;21.192;2023-08-30T03:46:26;99292.82;;;18.42;98.83
39177;BME280;24904;52.208;21.192;2023-08-30T03:51:29;99302.37;;;18.43;99.10
39177;BME280;24904;52.208;21.192;2023-08-30T03:56:32;99299.54;;;18.36;98.57
39177;BME280;24904;52.208;21.192;2023-08-30T04:01:35;99302.80;;;18.34;99.17
39177;BME280;24904;52.208;21.192;2023-08-30T04:06:38;99299.23;;;18.36;99.50
39177;BME280;24904;52.208;21.192;2023-08-30T04:11:41;99290.48;;;18.36;99.64
39177;BME280;24904;52.208;21.192;2023-08-30T04:16:44;99293.89;;;18.30;99.62
39177;BME280;24904;52.208;21.192;2023-08-30T04:21:47;99291.78;;;18.27;99.82
39177;BME280;24904;52.208;21.192;2023-08-30T04:26:50;99285.20;;;18.27;99.95
39177;BME280;24904;52.208;21.192;2023-08-30T04:31:55;99285.39;;;18.26;100.00
39177;BME280;24904;52.208;21.192;2023-08-30T04:36:58;99285.41;;;18.25;100.00
39177;BME280;24904;52.208;21.192;2023-08-30T04:42:01;99306.20;;;18.28;100.00
39177;BME280;24904;52.208;21.192;2023-08-30T04:47:05;99319.95;;;18.30;100.00
39177;BME280;24904;52.208;21.192;2023-08-30T04:52:10;99319.31;;;18.32;100.00
39177;BME280;24904;52.208;21.192;2023-08-30T04:57:13;99328.70;;;18.34;100.00
39177;BME280;24904;52.208;21.192;2023-08-30T05:02:18;99318.23;;;18.31;100.00
39177;BME280;24904;52.208;21.192;2023-08-30T05:07:36;99329.33;;;18.36;100.00
39177;BME280;24904;52.208;21.192;2023-08-30T05:12:40;99352.77;;;18.42;100.00
39177;BME280;24904;52.208;21.192;2023-08-30T05:17:44;99376.46;;;18.43;100.00
39177;BME280;24904;52.208;21.192;2023-08-30T05:22:48;99394.03;;;18.45;100.00
39177;BME280;24904;52.208;21.192;2023-08-30T05:27:51;99393.14;;;18.43;100.00
39177;BME280;24904;52.208;21.192;2023-08-30T05:32:55;99392.22;;;18.40;100.00
39177;BME280;24904;52.208;21.192;2023-08-30T05:38:36;99395.39;;;18.38;100.00
39177;BME280;24904;52.208;21.192;2023-08-30T05:44:06;99390.67;;;18.39;100.00
39177;BME280;24904;52.208;21.192;2023-08-30T05:49:10;99399.64;;;18.41;100.00
39177;BME280;24904;52.208;21.192;2023-08-30T05:54:13;99402.95;;;18.42;100.00
39177;BME280;24904;52.208;21.192;2023-08-30T05:59:16;99396.89;;;18.39;100.00
39177;BME280;24904;52.208;21.192;2023-08-30T06:04:19;99398.58;;;18.38;100.00
39177;BME280;24904;52.208;21.192;2023-08-30T06:09:22;99394.73;;;18.39;100.00
39177;BME280;24904;52.208;21.192;2023-08-30T06:14:26;99393.45;;;18.39;100.00
39177;BME280;24904;52.208;21.192;2023-08-30T06:19:29;99389.35;;;18.40;100.00
39177;BME280;24904;52.208;21.192;2023-08-30T06:24:32;99389.41;;;18.41;100.00
39177;BME280;24904;52.208;21.192;2023-08-30T06:29:34;99395.45;;;18.41;100.00
39177;BME280;24904;52.208;21.192;2023-08-30T06:34:38;99393.62;;;18.41;100.00
39177;BME280;24904;52.208;21.192;2023-08-30T06:39:41;99394.55;;;18.44;100.00
39177;BME280;24904;52.208;21.192;2023-08-30T06:44:44;99402.54;;;18.45;100.00
39177;BME280;24904;52.208;21.192;2023-08-30T06:49:47;99407.63;;;18.45;100.00
39177;BME280;24904;52.208;21.192;2023-08-30T06:54:51;99408.06;;;18.44;100.00
39177;BME280;24904;52.208;21.192;2023-08-30T06:59:54;99405.09;;;18.45;100.00
39177;BME280;24904;52.208;21.192;2023-08-30T07:04:57;99401.69;;;18.45;100.00
39177;BME280;24904;52.208;21.192;2023-08-30T07:10:00;99410.80;;;18.43;100.00
39177;BME280;24904;52.208;21.192;2023-08-30T07:15:04;99413.34;;;18.40;100.00
39177;BME280;24904;52.208;21.192;2023-08-30T07:20:09;99417.20;;;18.39;100.00
39177;BME280;24904;52.208;21.192;2023-08-30T07:25:12;99412.99;;;18.37;100.00
39177;BME280;24904;52.208;21.192;2023-08-30T07:30:16;99413.39;;;18.37;100.00
39177;BME280;24904;52.208;21.192;2023-08-30T07:35:19;99409.21;;;18.36;100.00
39177;BME280;24904;52.208;21.192;2023-08-30T07:40:22;99401.17;;;18.30;100.00
39177;BME280;24904;52.208;21.192;2023-08-30T07:45:28;99399.39;;;18.28;100.00
39177;BME280;24904;52.208;21.192;2023-08-30T07:50:31;99396.48;;;18.28;100.00
39177;BME280;24904;52.208;21.192;2023-08-30T07:55:34;99391.34;;;18.25;100.00
39177;BME280;24904;52.208;21.192;2023-08-30T08:00:37;99389.45;;;18.21;100.00
39177;BME280;24904;52.208;21.192;2023-08-30T08:05:41;99384.36;;;18.25;100.00
39177;BME280;24904;52.208;21.192;2023-08-30T08:10:44;99381.69;;;18.26;100.00
39177;BME280;24904;52.208;21.192;2023-08-30T08:15:47;99376.91;;;18.27;100.00
39177;BME280;24904;52.208;21.192;2023-08-30T08:20:50;99375.91;;;18.27;100.00
39177;BME280;24904;52.208;21.192;2023-08-30T08:25:58;99379.01;;;18.27;100.00
39177;BME280;24904;52.208;21.192;2023-08-30T08:31:01;99371.98;;;18.26;100.00
39177;BME280;24904;52.208;21.192;2023-08-30T08:36:05;99372.95;;;18.28;100.00
39177;BME280;24904;52.208;21.192;2023-08-30T08:41:10;99370.66;;;18.26;100.00
39177;BME280;24904;52.208;21.192;2023-08-30T08:46:16;99368.21;;;18.24;100.00
39177;BME280;24904;52.208;21.192;2023-08-30T08:51:21;99365.09;;;18.24;100.00
39177;BME280;24904;52.208;21.192;2023-08-30T08:56:26;99367.86;;;18.20;100.00
39177;BME280;24904;52.208;21.192;2023-08-30T09:01:29;99374.61;;;18.20;100.00
39177;BME280;24904;52.208;21.192;2023-08-30T09:06:36;99384.19;;;18.21;100.00
39177;BME280;24904;52.208;21.192;2023-08-30T09:11:43;99385.67;;;18.17;100.00
39177;BME280;24904;52.208;21.192;2023-08-30T09:16:55;99381.15;;;18.13;100.00
39177;BME280;24904;52.208;21.192;2023-08-30T09:21:59;99378.73;;;18.09;100.00
39177;BME280;24904;52.208;21.192;2023-08-30T09:27:04;99384.09;;;18.08;100.00
39177;BME280;24904;52.208;21.192;2023-08-30T09:32:08;99379.05;;;18.05;100.00
39177;BME280;24904;52.208;21.192;2023-08-30T09:37:20;99379.36;;;18.05;100.00
39177;BME280;24904;52.208;21.192;2023-08-30T09:42:24;99374.06;;;18.02;100.00
39177;BME280;24904;52.208;21.192;2023-08-30T09:47:27;99375.99;;;18.01;100.00
39177;BME280;24904;52.208;21.192;2023-08-30T09:52:31;99380.39;;;17.98;100.00
39177;BME280;24904;52.208;21.192;2023-08-30T09:57:35;99390.19;;;17.97;100.00
39177;BME280;24904;52.208;21.192;2023-08-30T10:02:39;99397.79;;;17.93;100.00
39177;BME280;24904;52.208;21.192;2023-08-30T10:07:44;99398.16;;;17.89;100.00
39177;BME280;24904;52.208;21.192;2023-08-30T10:12:47;99401.54;;;17.85;100.00
39177;BME280;24904;52.208;21.192;2023-08-30T10:17:52;99397.21;;;17.85;100.00
39177;BME280;24904;52.208;21.192;2023-08-30T10:22:58;99389.86;;;17.84;100.00
39177;BME280;24904;52.208;21.192;2023-08-30T10:28:02;99378.95;;;17.80;100.00
39177;BME280;24904;52.208;21.192;2023-08-30T10:33:13;99368.42;;;17.75;100.00
39177;BME280;24904;52.208;21.192;2023-08-30T10:38:26;99372.48;;;17.75;100.00
39177;BME280;24904;52.208;21.192;2023-08-30T10:43:30;99383.60;;;17.76;100.00
39177;BME280;24904;52.208;21.192;2023-08-30T10:48:38;99385.47;;;17.82;100.00
39177;BME280;24904;52.208;21.192;2023-08-30T10:53:41;99383.58;;;17.86;100.00
39177;BME280;24904;52.208;21.192;2023-08-30T10:58:44;99381.48;;;17.94;100.00
39177;BME280;24904;52.208;21.192;2023-08-30T11:03:47;99377.74;;;18.06;100.00
39177;BME280;24904;52.208;21.192;2023-08-30T11:08:52;99384.73;;;18.15;100.00
39177;BME280;24904;52.208;21.192;2023-08-30T11:13:55;99384.19;;;18.21;100.00
39177;BME280;24904;52.208;21.192;2023-08-30T11:19:07;99382.73;;;18.22;100.00
39177;BME280;24904;52.208;21.192;2023-08-30T11:24:10;99381.42;;;18.23;100.00
39177;BME280;24904;52.208;21.192;2023-08-30T11:29:14;99381.33;;;18.23;100.00
39177;BME280;24904;52.208;21.192;2023-08-30T11:34:20;99384.02;;;18.23;100.00
39177;BME280;24904;52.208;21.192;2023-08-30T11:39:24;99381.32;;;18.21;100.00
39177;BME280;24904;52.208;21.192;2023-08-30T11:44:30;99388.46;;;18.23;100.00
39177;BME280;24904;52.208;21.192;2023-08-30T11:49:34;99394.12;;;18.25;100.00
39177;BME280;24904;52.208;21.192;2023-08-30T11:54:37;99391.83;;;18.27;100.00
39177;BME280;24904;52.208;21.192;2023-08-30T11:59:40;99398.33;;;18.25;100.00
39177;BME280;24904;52.208;21.192;2023-08-30T12:04:44;99399.99;;;18.21;100.00
39177;BME280;24904;52.208;21.192;2023-08-30T12:09:48;99402.32;;;18.18;100.00
39177;BME280;24904;52.208;21.192;2023-08-30T12:14:56;99415.20;;;18.18;100.00
39177;BME280;24904;52.208;21.192;2023-08-30T12:19:59;99417.23;;;18.18;100.00
39177;BME280;24904;52.208;21.192;2023-08-30T12:25:02;99405.85;;;18.19;100.00
39177;BME280;24904;52.208;21.192;2023-08-30T12:30:08;99407.30;;;18.19;100.00
39177;BME280;24904;52.208;21.192;2023-08-30T12:35:11;99407.30;;;18.19;100.00
39177;BME280;24904;52.208;21.192;2023-08-30T12:40:14;99405.02;;;18.20;100.00
39177;BME280;24904;52.208;21.192;2023-08-30T12:45:17;99401.59;;;18.25;100.00
39177;BME280;24904;52.208;21.192;2023-08-30T12:50:20;99401.06;;;18.24;100.00
39177;BME280;24904;52.208;21.192;2023-08-30T12:55:24;99411.36;;;18.27;100.00
39177;BME280;24904;52.208;21.192;2023-08-30T13:00:27;99417.98;;;18.30;100.00
39177;BME280;24904;52.208;21.192;2023-08-30T13:05:30;99417.34;;;18.35;100.00
39177;BME280;24904;52.208;21.192;2023-08-30T13:10:34;99410.83;;;18.35;100.00
39177;BME280;24904;52.208;21.192;2023-08-30T13:15:37;99401.98;;;18.34;100.00
39177;BME280;24904;52.208;21.192;2023-08-30T13:20:40;99397.87;;;18.33;100.00
39177;BME280;24904;52.208;21.192;2023-08-30T13:25:43;99394.80;;;18.33;100.00
39177;BME280;24904;52.208;21.192;2023-08-30T13:30:46;99392.16;;;18.33;100.00
39177;BME280;24904;52.208;21.192;2023-08-30T13:35:51;99385.88;;;18.37;100.00
39177;BME280;24904;52.208;21.192;2023-08-30T13:40:59;99382.96;;;18.44;100.00
39177;BME280;24904;52.208;21.192;2023-08-30T13:46:02;99382.20;;;18.50;100.00
39177;BME280;24904;52.208;21.192;2023-08-30T13:51:06;99389.01;;;18.54;100.00
39177;BME280;24904;52.208;21.192;2023-08-30T13:56:09;99382.16;;;18.56;100.00
39177;BME280;24904;52.208;21.192;2023-08-30T14:01:12;99383.39;;;18.55;100.00
39177;BME280;24904;52.208;21.192;2023-08-30T14:06:16;99378.40;;;18.51;100.00
39177;BME280;24904;52.208;21.192;2023-08-30T14:11:19;99382.89;;;18.50;100.00
39177;BME280;24904;52.208;21.192;2023-08-30T14:16:22;99386.95;;;18.50;100.00
39177;BME280;24904;52.208;21.192;2023-08-30T14:21:25;99393.70;;;18.48;100.00
39177;BME280;24904;52.208;21.192;2023-08-30T14:26:29;99391.33;;;18.49;100.00
39177;BME280;24904;52.208;21.192;2023-08-30T14:31:33;99396.44;;;18.51;100.00
39177;BME280;24904;52.208;21.192;2023-08-30T14:36:36;99392.21;;;18.51;100.00
39177;BME280;24904;52.208;21.192;2023-08-30T14:41:39;99402.69;;;18.53;100.00
39177;BME280;24904;52.208;21.192;2023-08-30T14:46:42;99411.35;;;18.60;100.00
39177;BME280;24904;52.208;21.192;2023-08-30T14:51:45;99415.17;;;18.64;100.00
39177;BME280;24904;52.208;21.192;2023-08-30T14:56:58;99421.81;;;18.63;100.00
39177;BME280;24904;52.208;21.192;2023-08-30T15:02:01;99426.58;;;18.63;100.00
39177;BME280;24904;52.208;21.192;2023-08-30T15:07:04;99429.83;;;18.66;100.00
39177;BME280;24904;52.208;21.192;2023-08-30T15:12:07;99434.68;;;18.65;100.00
39177;BME280;24904;52.208;21.192;2023-08-30T15:17:10;99452.67;;;18.68;100.00
39177;BME280;24904;52.208;21.192;2023-08-30T15:22:13;99456.60;;;18.68;100.00
39177;BME280;24904;52.208;21.192;2023-08-30T15:27:16;99451.34;;;18.64;100.00
39177;BME280;24904;52.208;21.192;2023-08-30T15:32:19;99455.06;;;18.62;100.00
39177;BME280;24904;52.208;21.192;2023-08-30T15:37:22;99454.06;;;18.58;100.00
39177;BME280;24904;52.208;21.192;2023-08-30T15:42:25;99450.27;;;18.55;100.00
39177;BME280;24904;52.208;21.192;2023-08-30T15:47:28;99450.57;;;18.52;100.00
39177;BME280;24904;52.208;21.192;2023-08-30T15:52:32;99452.52;;;18.49;100.00
39177;BME280;24904;52.208;21.192;2023-08-30T15:57:35;99450.83;;;18.49;100.00
39177;BME280;24904;52.208;21.192;2023-08-30T16:02:37;99454.98;;;18.51;100.00
39177;BME280;24904;52.208;21.192;2023-08-30T16:07:40;99455.89;;;18.50;100.00
39177;BME280;24904;52.208;21.192;2023-08-30T16:12:43;99460.17;;;18.48;100.00
39177;BME280;24904;52.208;21.192;2023-08-30T16:17:46;99456.03;;;18.46;100.00
39177;BME280;24904;52.208;21.192;2023-08-30T16:22:51;99447.20;;;18.44;100.00
39177;BME280;24904;52.208;21.192;2023-08-30T16:27:54;99457.80;;;18.43;100.00
39177;BME280;24904;52.208;21.192;2023-08-30T16:32:58;99460.64;;;18.37;100.00
39177;BME280;24904;52.208;21.192;2023-08-30T16:38:01;99457.16;;;18.32;100.00
39177;BME280;24904;52.208;21.192;2023-08-30T16:43:05;99464.83;;;18.31;100.00
39177;BME280;24904;52.208;21.192;2023-08-30T16:48:08;99463.89;;;18.28;100.00
39177;BME280;24904;52.208;21.192;2023-08-30T17:01:23;99468.56;;;18.14;100.00
39177;BME280;24904;52.208;21.192;2023-08-30T17:06:28;99475.30;;;18.05;100.00
39177;BME280;24904;52.208;21.192;2023-08-30T17:11:34;99468.00;;;17.98;100.00
39177;BME280;24904;52.208;21.192;2023-08-30T17:16:39;99463.04;;;17.90;100.00
39177;BME280;24904;52.208;21.192;2023-08-30T17:21:44;99448.23;;;17.86;100.00
39177;BME280;24904;52.208;21.192;2023-08-30T17:26:49;99443.31;;;17.82;100.00
39177;BME280;24904;52.208;21.192;2023-08-30T17:31:54;99440.34;;;17.76;100.00
39177;BME280;24904;52.208;21.192;2023-08-30T17:36:59;99428.88;;;17.72;100.00
39177;BME280;24904;52.208;21.192;2023-08-30T17:42:08;99422.54;;;17.69;100.00
39177;BME280;24904;52.208;21.192;2023-08-30T17:47:13;99426.37;;;17.66;100.00
39177;BME280;24904;52.208;21.192;2023-08-30T17:52:18;99427.62;;;17.64;100.00
39177;BME280;24904;52.208;21.192;2023-08-30T17:57:23;99434.52;;;17.64;100.00
39177;BME280;24904;52.208;21.192;2023-08-30T18:02:28;99442.59;;;17.62;100.00
39177;BME280;24904;52.208;21.192;2023-08-30T18:07:34;99444.46;;;17.61;100.00
39177;BME280;24904;52.208;21.192;2023-08-30T18:12:39;99446.08;;;17.62;100.00
39177;BME280;24904;52.208;21.192;2023-08-30T18:17:44;99444.13;;;17.61;100.00
39177;BME280;24904;52.208;21.192;2023-08-30T18:22:49;99449.25;;;17.60;100.00
39177;BME280;24904;52.208;21.192;2023-08-30T18:27:54;99453.61;;;17.59;100.00
39177;BME280;24904;52.208;21.192;2023-08-30T18:32:59;99452.17;;;17.57;100.00
39177;BME280;24904;52.208;21.192;2023-08-30T18:38:04;99445.49;;;17.55;100.00
39177;BME280;24904;52.208;21.192;2023-08-30T18:43:11;99440.07;;;17.51;100.00
39177;BME280;24904;52.208;21.192;2023-08-30T18:48:16;99442.86;;;17.51;100.00
39177;BME280;24904;52.208;21.192;2023-08-30T18:53:21;99453.98;;;17.53;100.00
39177;BME280;24904;52.208;21.192;2023-08-30T18:58:26;99461.17;;;17.56;100.00
39177;BME280;24904;52.208;21.192;2023-08-30T19:03:31;99463.66;;;17.55;100.00
39177;BME280;24904;52.208;21.192;2023-08-30T19:08:36;99461.05;;;17.55;100.00
39177;BME280;24904;52.208;21.192;2023-08-30T19:13:41;99470.59;;;17.54;100.00
39177;BME280;24904;52.208;21.192;2023-08-30T19:18:46;99478.31;;;17.56;100.00
39177;BME280;24904;52.208;21.192;2023-08-30T19:23:52;99480.54;;;17.56;100.00
39177;BME280;24904;52.208;21.192;2023-08-30T19:28:57;99492.92;;;17.55;100.00
39177;BME280;24904;52.208;21.192;2023-08-30T19:34:02;99506.52;;;17.54;100.00
39177;BME280;24904;52.208;21.192;2023-08-30T19:39:07;99508.50;;;17.52;100.00
39177;BME280;24904;52.208;21.192;2023-08-30T19:44:13;99510.30;;;17.47;100.00
39177;BME280;24904;52.208;21.192;2023-08-30T19:49:18;99524.36;;;17.43;100.00
39177;BME280;24904;52.208;21.192;2023-08-30T19:54:23;99522.33;;;17.40;100.00
39177;BME280;24904;52.208;21.192;2023-08-30T19:59:28;99524.88;;;17.40;100.00
39177;BME280;24904;52.208;21.192;2023-08-30T20:04:33;99526.88;;;17.39;100.00
39177;BME280;24904;52.208;21.192;2023-08-30T20:09:38;99527.43;;;17.39;100.00
39177;BME280;24904;52.208;21.192;2023-08-30T20:14:44;99529.67;;;17.41;100.00
39177;BME280;24904;52.208;21.192;2023-08-30T20:19:49;99534.96;;;17.44;100.00
39177;BME280;24904;52.208;21.192;2023-08-30T20:24:55;99541.69;;;17.45;100.00
39177;BME280;24904;52.208;21.192;2023-08-30T20:30:02;99541.28;;;17.43;100.00
39177;BME280;24904;52.208;21.192;2023-08-30T20:35:09;99530.63;;;17.36;100.00
39177;BME280;24904;52.208;21.192;2023-08-30T20:40:14;99532.45;;;17.34;100.00
39177;BME280;24904;52.208;21.192;2023-08-30T20:45:20;99534.59;;;17.31;100.00
39177;BME280;24904;52.208;21.192;2023-08-30T20:50:25;99545.30;;;17.31;100.00
39177;BME280;24904;52.208;21.192;2023-08-30T20:55:30;99545.52;;;17.31;100.00
39177;BME280;24904;52.208;21.192;2023-08-30T21:00:35;99539.63;;;17.32;100.00
39177;BME280;24904;52.208;21.192;2023-08-30T21:05:40;99538.53;;;17.34;100.00
39177;BME280;24904;52.208;21.192;2023-08-30T21:10:45;99544.90;;;17.33;100.00
39177;BME280;24904;52.208;21.192;2023-08-30T21:15:50;99547.98;;;17.33;100.00
39177;BME280;24904;52.208;21.192;2023-08-30T21:20:58;99548.92;;;17.31;100.00
39177;BME280;24904;52.208;21.192;2023-08-30T21:26:04;99548.13;;;17.31;100.00
39177;BME280;24904;52.208;21.192;2023-08-30T21:31:09;99545.71;;;17.29;100.00
39177;BME280;24904;52.208;21.192;2023-08-30T21:36:14;99549.67;;;17.25;100.00
39177;BME280;24904;52.208;21.192;2023-08-30T21:41:19;99549.91;;;17.22;100.00
39177;BME280;24904;52.208;21.192;2023-08-30T21:46:24;99535.06;;;17.18;99.98
39177;BME280;24904;52.208;21.192;2023-08-30T21:51:29;99537.93;;;17.16;100.00
39177;BME280;24904;52.208;21.192;2023-08-30T21:56:38;99542.98;;;17.18;100.00
39177;BME280;24904;52.208;21.192;2023-08-30T22:01:43;99537.55;;;17.16;100.00
39177;BME280;24904;52.208;21.192;2023-08-30T22:06:48;99531.53;;;17.16;100.00
39177;BME280;24904;52.208;21.192;2023-08-30T22:11:53;99540.91;;;17.18;100.00
39177;BME280;24904;52.208;21.192;2023-08-30T22:16:58;99543.42;;;17.22;100.00
39177;BME280;24904;52.208;21.192;2023-08-30T22:22:05;99542.39;;;17.24;100.00
39177;BME280;24904;52.208;21.192;2023-08-30T22:27:12;99543.52;;;17.25;100.00
39177;BME280;24904;52.208;21.192;2023-08-30T22:32:17;99545.70;;;17.22;100.00
39177;BME280;24904;52.208;21.192;2023-08-30T22:37:22;99551.70;;;17.24;100.00
39177;BME280;24904;52.208;21.192;2023-08-30T22:42:28;99550.83;;;17.20;100.00
39177;BME280;24904;52.208;21.192;2023-08-30T22:47:33;99554.80;;;17.23;100.00
39177;BME280;24904;52.208;21.192;2023-08-30T22:52:39;99565.13;;;17.23;100.00
39177;BME280;24904;52.208;21.192;2023-08-30T22:57:44;99565.23;;;17.21;100.00
39177;BME280;24904;52.208;21.192;2023-08-30T23:02:49;99559.17;;;17.20;100.00
39177;BME280;24904;52.208;21.192;2023-08-30T23:07:55;99551.23;;;17.20;100.00
39177;BME280;24904;52.208;21.192;2023-08-30T23:13:01;99553.66;;;17.21;100.00
39177;BME280;24904;52.208;21.192;2023-08-30T23:18:07;99550.07;;;17.19;100.00
39177;BME280;24904;52.208;21.192;2023-08-30T23:23:12;99548.70;;;17.17;100.00
39177;BME280;24904;52.208;21.192;2023-08-30T23:28:17;99555.73;;;17.15;100.00
39177;BME280;24904;52.208;21.192;2023-08-30T23:33:22;99559.20;;;17.13;100.00
39177;BME280;24904;52.208;21.192;2023-08-30T23:38:28;99557.05;;;17.11;100.00
39177;BME280;24904;52.208;21.192;2023-08-30T23:43:33;99559.02;;;17.11;100.00
39177;BME280;24904;52.208;21.192;2023-08-30T23:48:38;99563.23;;;17.11;100.00
39177;BME280;24904;52.208;21.192;2023-08-30T23:53:43;99557.90;;;17.11;100.00
39177;BME280;24904;52.208;21.192;2023-08-30T23:58:49;99554.86;;;17.10;99.98
